Nearby METAR Reports

 

KTEB - Teterboro, New Jersey, USA
Distance from station: ENE 2mi, 4km
Updated: 05/27/2019 3:51am
Clear
Clear
 Wind from NNW
Wind: NNW 7 mph , 11 km/h
Temperature: 66°F , 19°C
Dew Point: 50°F , 10°C
Humidity: 56%
Barometer: 29.87 inHg , 1011.5 hPa
Clouds: Clear
Visibility: 10 miles , 16 km
2019/05/27 07:51 KTEB 270751Z 34006KT 10SM CLR 19/10 A2987 RMK AO2 SLP114 T01890100 $
KNYC - Nyc/Central Park, New York, USA
Distance from station: SE 8mi, 13km
Updated: 05/27/2019 3:51am
Clear
Clear
 Wind from varies
Wind: varies 5 mph , 7 km/h
Temperature: 68°F , 20°C
Dew Point: 50°F , 10°C
Humidity: 53%
Barometer: 29.91 inHg , 1012.9 hPa
Clouds: Clear
Visibility: 10 miles , 16 km
2019/05/27 07:51 KNYC 270751Z AUTO VRB04KT 10SM CLR 20/10 A2991 RMK AO2 SLP117 T02000100 $
 
KCDW - Caldwell, New Jersey, USA
Distance from station: WNW 10mi, 17km
Updated: 05/27/2019 3:53am
Clear
Clear
 Wind from varies
Wind: varies 3 mph , 6 km/h
Temperature: 68°F , 20°C
Dew Point: 52°F , 11°C
Humidity: 56%
Barometer: 29.90 inHg , 1012.5 hPa
Clouds: Clear
Visibility: 10 miles , 16 km
2019/05/27 07:53 KCDW 270753Z AUTO VRB03KT 10SM CLR 20/11 A2990 RMK AO2 SLP126 T02000106
KLGA - Nyc/La Guardia, New York, USA
Distance from station: ESE 12mi, 19km
Updated: 05/27/2019 3:51am
Partly cloudy
Partly cloudy
 Wind from N
Wind: N 8 mph , 13 km/h, Gust: 17 mph , 28 km/h
Temperature: 70°F , 21°C
Dew Point: 50°F , 10°C
Humidity: 50%
Barometer: 29.87 inHg , 1011.5 hPa
Clouds: Partly cloudy
Visibility: 10 miles , 16 km
Cloud details: Partly cloudy 15000 ft
2019/05/27 07:51 KLGA 270751Z 35007G15KT 10SM SCT150 21/10 A2987 RMK AO2 SLP116 T02060100 $
 
KEWR - Newark, New Jersey, USA
Distance from station: SSW 12mi, 20km
Updated: 05/27/2019 3:51am
Few Clouds
Few Clouds
 Wind from NNW
Wind: NNW 13 mph , 20 km/h
Temperature: 70°F , 21°C
Dew Point: 52°F , 11°C
Humidity: 53%
Barometer: 29.87 inHg , 1011.5 hPa
Clouds: Few Clouds
Visibility: 10 miles , 16 km
Cloud details: Few Clouds 18000 ft
2019/05/27 07:51 KEWR 270751Z 34011KT 10SM FEW180 21/11 A2987 RMK AO2 SLP114 T02060111 $
KMMU - Morristown Muni, New Jersey, USA
Distance from station: WSW 18mi, 29km
Updated: 05/27/2019 3:55am
Clear
Clear
 Wind from NNW
Wind: NNW 6 mph , 9 km/h
Temperature: 66°F , 19°C
Dew Point: 52°F , 11°C
Humidity: 60%
Barometer: 29.89 inHg , 1012.2 hPa
Clouds: Clear
Visibility: 10 miles , 16 km
2019/05/27 07:55 KMMU 270755Z AUTO 34005KT 10SM CLR 19/11 A2989 RMK AO2
 
KJFK - Nyc/Jfk Arpt, New York, USA
Distance from station: SE 23mi, 36km
Updated: 05/27/2019 3:51am
Few Clouds
Few Clouds
 Wind from NNW
Wind: NNW 9 mph , 15 km/h
Temperature: 66°F , 19°C
Dew Point: 57°F , 14°C
Humidity: 73%
Barometer: 29.88 inHg , 1011.9 hPa
Clouds: Few Clouds
Visibility: 10 miles , 16 km
Cloud details: Few Clouds 18000 ft
2019/05/27 07:51 KJFK 270751Z 33008KT 10SM FEW180 19/14 A2988 RMK AO2 SLP116 T01940144
KHPN - White Plains, New York, USA
Distance from station: NE 25mi, 40km
Updated: 05/27/2019 3:56am
Clear
Clear
 Wind from NW
Wind: NW 6 mph , 9 km/h
Temperature: 61°F , 16°C
Dew Point: 55°F , 13°C
Humidity: 83%
Barometer: 29.88 inHg , 1011.9 hPa
Clouds: Clear
Visibility: 10 miles , 16 km
2019/05/27 07:56 KHPN 270756Z 32005KT 10SM CLR 16/13 A2988 RMK AO2 SLP111 T01610128
 
KSMQ - Somerville, New Jersey, USA
Distance from station: WSW 34mi, 55km
Updated: 05/27/2019 3:53am
Mist, Clear
Mist, Clear
 Wind from calm
Wind: Calm
Temperature: 61°F , 16°C
Dew Point: 59°F , 15°C
Humidity: 94%
Barometer: 29.87 inHg , 1011.5 hPa
Summary: Mist
Clouds: Clear
Visibility: 5 miles , 8 km
2019/05/27 07:53 KSMQ 270753Z AUTO 00000KT 5SM BR CLR 16/15 A2987 RMK AO2 SLP115 T01560150
K12N - Andover, New Jersey, USA
Distance from station: WNW 36mi, 57km
Updated: 05/27/2019 3:54am

 Wind from calm
Wind: Calm
Temperature: 63°F , 17°C
Dew Point: 52°F , 11°C
Humidity: 68%
Barometer: 29.92 inHg , 1013.2 hPa
2019/05/27 07:54 K12N 270754Z AUTO 00000KT 17/11 A2992 RMK AO1 SLP125 T01670106
 
KFRG - Farmingdale, New York, USA
Distance from station: ESE 36mi, 58km
Updated: 05/27/2019 3:53am
Clear
Clear
 Wind from N
Wind: N 6 mph , 9 km/h
Temperature: 66°F , 19°C
Dew Point: 61°F , 16°C
Humidity: 83%
Barometer: 29.86 inHg , 1011.2 hPa
Clouds: Clear
Visibility: 10 miles , 16 km
2019/05/27 07:53 KFRG 270753Z AUTO 36005KT 10SM CLR 19/16 A2986 RMK AO2 SLP112 T01890161
KFWN - Sussex, New Jersey, USA
Distance from station: NW 37mi, 60km
Updated: 05/27/2019 3:53am
Clear
Clear
 Wind from WNW
Wind: WNW 5 mph , 7 km/h
Temperature: 57°F , 14°C
Dew Point: 54°F , 12°C
Humidity: 88%
Barometer: 29.93 inHg , 1013.5 hPa
Clouds: Clear
Visibility: 10 miles , 16 km
2019/05/27 07:53 KFWN 270753Z AUTO 29004KT 10SM CLR 14/12 A2993 RMK AO2 SLP131 T01440122
 
KSWF - Newburgh/Stewart, New York, USA
Distance from station: 0 45mi, 72km
Updated: 05/27/2019 3:45am
Few Clouds
Few Clouds
 Wind from NW
Wind: NW 5 mph , 7 km/h
Temperature: 59°F , 15°C
Dew Point: 54°F , 12°C
Humidity: 82%
Barometer: 29.90 inHg , 1012.5 hPa
Clouds: Few Clouds
Visibility: 10 miles , 16 km
Cloud details: Few Clouds 8000 ft
2019/05/27 07:45 KSWF 270745Z 32004KT 10SM FEW080 15/12 A2990
KMGJ - Montgomery, New York, USA
Distance from station: NNW 47mi, 75km
Updated: 05/27/2019 3:54am
Clear
Clear
 Wind from calm
Wind: Calm
Temperature: 54°F , 12°C
Dew Point: 52°F , 11°C
Humidity: 94%
Barometer: 29.89 inHg , 1012.2 hPa
Clouds: Clear
Visibility: 10 miles , 16 km
2019/05/27 07:54 KMGJ 270754Z AUTO 00000KT 10SM CLR 12/11 A2989 RMK AO2 SLP120 T01220111
 
KBLM - Belmar/Farmdale, New Jersey, USA
Distance from station: S 47mi, 76km
Updated: 05/27/2019 3:56am
Mostly cloudy
Mostly cloudy
 Wind from WNW
Wind: WNW 3 mph , 6 km/h
Temperature: 68°F , 20°C
Dew Point: 63°F , 17°C
Humidity: 83%
Barometer: 29.90 inHg , 1012.5 hPa
Clouds: Mostly cloudy
Visibility: 10 miles , 16 km
Cloud details: Mostly cloudy 11000 ft
2019/05/27 07:56 KBLM 270756Z AUTO 29003KT 10SM BKN110 20/17 A2990 RMK AO2 SLP123 T02000172
KDXR - Danbury, Connecticut, USA
Distance from station: NE 47mi, 76km
Updated: 05/27/2019 3:53am
Clear
Clear
 Wind from calm
Wind: Calm
Temperature: 63°F , 17°C
Dew Point: 52°F , 11°C
Humidity: 68%
Barometer: 29.89 inHg , 1012.2 hPa
Clouds: Clear
Visibility: 10 miles , 16 km
2019/05/27 07:53 KDXR 270753Z AUTO 00000KT 10SM CLR 17/11 A2989 RMK AO2 SLP119 T01670106
 
KISP - Islip, New York, USA
Distance from station: E 52mi, 83km
Updated: 05/27/2019 3:56am
Clear
Clear
 Wind from NNW
Wind: NNW 10 mph , 17 km/h
Temperature: 68°F , 20°C
Dew Point: 57°F , 14°C
Humidity: 69%
Barometer: 29.85 inHg , 1010.8 hPa
Clouds: Clear
Visibility: 10 miles , 16 km
2019/05/27 07:56 KISP 270756Z AUTO 33009KT 10SM CLR 20/14 A2985 RMK AO2 SLP107 T02000144
KBDR - Bridgeport, Connecticut, USA
Distance from station: ENE 54mi, 87km
Updated: 05/27/2019 3:52am
Clear
Clear
 Wind from NNW
Wind: NNW 8 mph , 13 km/h
Temperature: 66°F , 19°C
Dew Point: 54°F , 12°C
Humidity: 64%
Barometer: 29.86 inHg , 1011.2 hPa
Clouds: Clear
Visibility: 10 miles , 16 km
2019/05/27 07:52 KBDR 270752Z AUTO 34007KT 10SM CLR 19/12 A2986 RMK AO2 SLP110 T01940117 $
 
KTTN - Trenton, New Jersey, USA
Distance from station: SW 55mi, 88km
Updated: 05/27/2019 3:53am
Few Clouds
Few Clouds
 Wind from NNW
Wind: NNW 5 mph , 7 km/h
Temperature: 66°F , 19°C
Dew Point: 61°F , 16°C
Humidity: 83%
Barometer: 29.89 inHg , 1012.2 hPa
Clouds: Few Clouds
Visibility: 10 miles , 16 km
Cloud details: Few Clouds 8000 ft
2019/05/27 07:53 KTTN 270753Z AUTO 33004KT 10SM FEW080 19/16 A2989 RMK AO2 SLP113 T01940156
KPOU - Poughkeepsie, New York, USA
Distance from station: N 55mi, 89km
Updated: 05/27/2019 3:53am
Clear
Clear
 Wind from calm
Wind: Calm
Temperature: 57°F , 14°C
Dew Point: 54°F , 12°C
Humidity: 88%
Barometer: 29.89 inHg , 1012.2 hPa
Clouds: Clear
Visibility: 10 miles , 16 km
2019/05/27 07:53 KPOU 270753Z AUTO 00000KT 10SM CLR 14/12 A2989 RMK AO2 SLP116 T01390122
 
KNEL - Lakehurst Nas, New Jersey, USA
Distance from station: SSW 59mi, 95km
Updated: 05/27/2019 3:00am
Few Clouds
Few Clouds
 Wind from NW
Wind: NW 5 mph , 7 km/h
Temperature: 70°F , 21°C
Dew Point: 64°F , 18°C
Humidity: 83%
Barometer: 29.87 inHg , 1011.5 hPa
Clouds: Few Clouds
Cloud details: Few Clouds 11000 ft
2019/05/27 07:00 KNEL 270700Z AUTO 31004KT FEW110 21/18 A2987 RMK AO2 SLP114 T02060183 $
KWRI - Wrightst/Mcguire, New Jersey, USA
Distance from station: SSW 63mi, 102km
Updated: 05/27/2019 3:56am
Mostly cloudy
Mostly cloudy
 Wind from N
Wind: N 3 mph , 6 km/h
Temperature: 66°F , 19°C
Dew Point: 63°F , 17°C
Humidity: 88%
Barometer: 29.87 inHg , 1011.5 hPa
Clouds: Mostly cloudy
Visibility: 10 miles , 16 km
Cloud details: Mostly cloudy 9000 ft
2019/05/27 07:56 KWRI 270756Z AUTO 35003KT 10SM BKN090 19/17 A2987 RMK AO2 SLP114 T01920173 $
 
KHWV - Shirley, New York, USA
Distance from station: E 64mi, 103km
Updated: 05/27/2019 3:56am
Clear
Clear
 Wind from NNW
Wind: NNW 7 mph , 11 km/h
Temperature: 66°F , 19°C
Dew Point: 57°F , 14°C
Humidity: 73%
Barometer: 29.85 inHg , 1010.8 hPa
Clouds: Clear
Visibility: 10 miles , 16 km
2019/05/27 07:56 KHWV 270756Z AUTO 34006KT 10SM CLR 19/14 A2985 RMK AO2 SLP107 T01890139
KMJX - Toms River, New Jersey, USA
Distance from station: S 64mi, 104km
Updated: 05/27/2019 3:56am
Few Clouds
Few Clouds
 Wind from NNW
Wind: NNW 7 mph , 11 km/h
Temperature: 68°F , 20°C
Dew Point: 64°F , 18°C
Humidity: 88%
Barometer: 29.89 inHg , 1012.2 hPa
Clouds: Few Clouds
Visibility: 10 miles , 16 km
Cloud details: Few Clouds 9500 ft
2019/05/27 07:56 KMJX 270756Z AUTO 34006KT 10SM FEW095 20/18 A2989 RMK AO2 SLP126 T02000178
 
KDYL - Doylestown, Pennsylvania, USA
Distance from station: SW 65mi, 104km
Updated: 05/27/2019 3:54am
Partly cloudy
Partly cloudy
 Wind from N
Wind: N 6 mph , 9 km/h
Temperature: 66°F , 19°C
Dew Point: 61°F , 16°C
Humidity: 83%
Barometer: 29.89 inHg , 1012.2 hPa
Clouds: Partly cloudy
Visibility: 10 miles , 16 km
Cloud details: Partly cloudy 7000 ft
2019/05/27 07:54 KDYL 270754Z AUTO 01005KT 10SM SCT070 19/16 A2989 RMK AO2 SLP117 T01890161 $
KOXC - Oxford/Waterbury, Connecticut, USA
Distance from station: NE 65mi, 105km
Updated: 05/27/2019 3:51am
Clear
Clear
 Wind from NNW
Wind: NNW 9 mph , 15 km/h
Temperature: 63°F , 17°C
Dew Point: 52°F , 11°C
Humidity: 68%
Barometer: 29.89 inHg , 1012.2 hPa
Clouds: Clear
Visibility: 10 miles , 16 km
2019/05/27 07:51 KOXC 270751Z AUTO 34008KT 10SM CLR 17/11 A2989 RMK AO2 SLP127 T01670106
 
KMSV - Monticello, New York, USA
Distance from station: NNW 69mi, 111km
Updated: 05/27/2019 3:56am
Clear
Clear
 Wind from calm
Wind: Calm
Temperature: 54°F , 12°C
Dew Point: 48°F , 9°C
Humidity: 82%
Barometer: 29.96 inHg , 1014.6 hPa
Clouds: Clear
Visibility: 10 miles , 16 km
2019/05/27 07:56 KMSV 270756Z AUTO 00000KT 10SM CLR 12/09 A2996 RMK AO2 SLP140 T01170089
KHVN - New Haven/Tweed, Connecticut, USA
Distance from station: ENE 70mi, 112km
Updated: 05/27/2019 3:53am
Clear
Clear
 Wind from NNW
Wind: NNW 6 mph , 9 km/h
Temperature: 66°F , 19°C
Dew Point: 52°F , 11°C
Humidity: 60%
Barometer: 29.86 inHg , 1011.2 hPa
Clouds: Clear
Visibility: 10 miles , 16 km
2019/05/27 07:53 KHVN 270753Z AUTO 34005KT 10SM CLR 19/11 A2986 RMK AO2 SLP110 T01940106
 
KMPO - Mt. Pocono, Pennsylvania, USA
Distance from station: WNW 70mi, 113km
Updated: 05/27/2019 3:53am
Clear
Clear
 Wind from NW
Wind: NW 9 mph , 15 km/h
Temperature: 54°F , 12°C
Dew Point: 52°F , 11°C
Humidity: 94%
Barometer: 29.95 inHg , 1014.2 hPa
Clouds: Clear
Visibility: 10 miles , 16 km
2019/05/27 07:53 KMPO 270753Z AUTO 32008KT 10SM CLR 12/11 A2995 RMK AO2 SLP136 T01220106
KPNE - Philadelphia/Ne, Pennsylvania, USA
Distance from station: SW 72mi, 116km
Updated: 05/27/2019 3:54am
Mostly cloudy
Mostly cloudy
 Wind from calm
Wind: Calm
Temperature: 70°F , 21°C
Dew Point: 63°F , 17°C
Humidity: 78%
Barometer: 29.91 inHg , 1012.9 hPa
Clouds: Mostly cloudy
Visibility: 10 miles , 16 km
Cloud details: Mostly cloudy 9000 ft
2019/05/27 07:54 KPNE 270754Z AUTO 00000KT 10SM BKN090 21/17 A2991 RMK AO2 SLP127 T02110167 $
 
KABE - Allentown, Pennsylvania, USA
Distance from station: W 73mi, 117km
Updated: 05/27/2019 3:51am
Mostly cloudy
Mostly cloudy
 Wind from NNW
Wind: NNW 8 mph , 13 km/h
Temperature: 64°F , 18°C
Dew Point: 54°F , 12°C
Humidity: 68%
Barometer: 29.91 inHg , 1012.9 hPa
Clouds: Mostly cloudy
Visibility: 10 miles , 16 km
Cloud details: Mostly cloudy 8000 ft
2019/05/27 07:51 KABE 270751Z 34007KT 10SM BKN080 18/12 A2991 RMK AO2 SLP127 T01830122
KUKT - Quakertown Arp, Pennsylvania, USA
Distance from station: WSW 74mi, 119km
Updated: 05/27/2019 3:55am
Clear
Clear
 Wind from calm
Wind: Calm
Temperature: 64°F , 18°C
Dew Point: 63°F , 17°C
Humidity: 94%
Barometer: 29.92 inHg , 1013.2 hPa
Clouds: Clear
Visibility: 10 miles , 16 km
2019/05/27 07:55 KUKT 270755Z AUTO 00000KT 10SM CLR 18/17 A2992 RMK A01
 
KVAY - Mount Holly, New Jersey, USA
Distance from station: SSW 75mi, 120km
Updated: 05/27/2019 3:54am
Partly cloudy
Partly cloudy
 Wind from calm
Wind: Calm
Temperature: 64°F , 18°C
Dew Point: 61°F , 16°C
Humidity: 88%
Barometer: 29.90 inHg , 1012.5 hPa
Clouds: Partly cloudy
Visibility: 10 miles , 16 km
Cloud details: Partly cloudy 9000 ft
2019/05/27 07:54 KVAY 270754Z AUTO 00000KT 10SM SCT090 18/16 A2990 RMK AO2 SLP123 T01780161
KXLL - Allentown Queen, Pennsylvania, USA
Distance from station: WSW 76mi, 122km
Updated: 05/27/2019 3:55am
Clear
Clear
 Wind from calm
Wind: Calm
Temperature: 64°F , 18°C
Dew Point: 59°F , 15°C
Humidity: 83%
Barometer: 29.93 inHg , 1013.5 hPa
Clouds: Clear
Visibility: 10 miles , 16 km
2019/05/27 07:55 KXLL 270755Z AUTO 00000KT 10SM CLR 18/15 A2993 RMK AO2
 
KFOK - Westhampton Beac, New York, USA
Distance from station: E 77mi, 124km
Updated: 05/27/2019 3:53am
Clear
Clear
 Wind from N
Wind: N 6 mph , 9 km/h
Temperature: 66°F , 19°C
Dew Point: 54°F , 12°C
Humidity: 64%
Barometer: 29.86 inHg , 1011.2 hPa
Clouds: Clear
Visibility: 10 miles , 16 km
2019/05/27 07:53 KFOK 270753Z AUTO 35005KT 10SM CLR 19/12 A2986 RMK AO2 SLP110 T01890122
KLOM - Philly Wings F, Pennsylvania, USA
Distance from station: SW 79mi, 128km
Updated: 05/27/2019 3:55am
Mostly cloudy
Mostly cloudy
 Wind from calm
Wind: Calm
Temperature: 64°F , 18°C
Dew Point: 63°F , 17°C
Humidity: 94%
Barometer: 29.91 inHg , 1012.9 hPa
Clouds: Mostly cloudy
Visibility: 10 miles , 16 km
Cloud details: Mostly cloudy 8000 ft
2019/05/27 07:55 KLOM 270755Z AUTO 00000KT 10SM BKN080 18/17 A2991 RMK AO2 T01830172
 
KMMK - Meriden, Connecticut, USA
Distance from station: NE 80mi, 128km
Updated: 05/27/2019 3:53am
Clear
Clear
 Wind from calm
Wind: Calm
Temperature: 61°F , 16°C
Dew Point: 50°F , 10°C
Humidity: 68%
Barometer: 29.86 inHg , 1011.2 hPa
Clouds: Clear
Visibility: 10 miles , 16 km
2019/05/27 07:53 KMMK 270753Z AUTO 00000KT 10SM CLR 16/10 A2986 RMK AO2 SLP111 T01610100
KPTW - Pottstown, Pennsylvania, USA
Distance from station: WSW 88mi, 141km
Updated: 05/27/2019 3:54am

 Wind from calm
Wind: Calm
Temperature: 63°F , 17°C
Dew Point: 57°F , 14°C
Humidity: 83%
Barometer: 29.93 inHg , 1013.5 hPa
Visibility: 10 miles , 16 km
2019/05/27 07:54 KPTW 270754Z AUTO 00000KT 10SM 17/14 A2993 RMK AO2 SLP131 T01720144 $
 
KSNC - Chester, Connecticut, USA
Distance from station: ENE 90mi, 146km
Updated: 05/27/2019 3:55am
Clear
Clear
 Wind from NNW
Wind: NNW 9 mph , 15 km/h
Temperature: 64°F , 18°C
Dew Point: 48°F , 9°C
Humidity: 56%
Barometer: 29.86 inHg , 1011.2 hPa
Clouds: Clear
Visibility: 10 miles , 16 km
2019/05/27 07:55 KSNC 270755Z AUTO 34008KT 10SM CLR 18/09 A2986 RMK AO2
KPHL - Philadelphia, Pennsylvania, USA
Distance from station: SW 91mi, 146km
Updated: 05/27/2019 3:54am
Mostly cloudy
Mostly cloudy
 Wind from N
Wind: N 7 mph , 11 km/h
Temperature: 70°F , 21°C
Dew Point: 63°F , 17°C
Humidity: 78%
Barometer: 29.91 inHg , 1012.9 hPa
Clouds: Mostly cloudy
Visibility: 10 miles , 16 km
Cloud details: Mostly cloudy 9000 ft
Mostly cloudy 26000 ft
2019/05/27 07:54 KPHL 270754Z 36006KT 10SM BKN090 BKN260 21/17 A2991 RMK AO2 SLP126 T02110172
 
KAVP - Avoca/Wilkes B., Pennsylvania, USA
Distance from station: WNW 91mi, 147km
Updated: 05/27/2019 3:54am
Clear
Clear
 Wind from E
Wind: E 3 mph , 6 km/h
Temperature: 57°F , 14°C
Dew Point: 54°F , 12°C
Humidity: 88%
Barometer: 29.95 inHg , 1014.2 hPa
Clouds: Clear
Visibility: 10 miles , 16 km
2019/05/27 07:54 KAVP 270754Z 09003KT 10SM CLR 14/12 A2995 RMK AO2 SLP137 T01390122
KHFD - Hartford/Brainar, Connecticut, USA
Distance from station: NE 96mi, 155km
Updated: 05/27/2019 3:53am
Clear
Clear
 Wind from calm
Wind: Calm
Temperature: 63°F , 17°C
Dew Point: 48°F , 9°C
Humidity: 59%
Barometer: 29.86 inHg , 1011.2 hPa
Clouds: Clear
Visibility: 10 miles , 16 km
2019/05/27 07:53 KHFD 270753Z AUTO 00000KT 10SM CLR 17/09 A2986 RMK AO2 SLP112 T01720094
 
KHTO - East Hampton, New York, USA
Distance from station: E 96mi, 155km
Updated: 05/27/2019 3:55am
Clear
Clear
 Wind from NNW
Wind: NNW 6 mph , 9 km/h
Temperature: 64°F , 18°C
Dew Point: 54°F , 12°C
Humidity: 68%
Barometer: 29.83 inHg , 1010.2 hPa
Clouds: Clear
Visibility: 10 miles , 16 km
2019/05/27 07:55 KHTO 270755Z AUTO 33005KT 10SM CLR 18/12 A2983 RMK AO2 T01770124
KACY - Atlantic City, New Jersey, USA
Distance from station: SSW 99mi, 160km
Updated: 05/27/2019 3:54am
Clear
Clear
 Wind from WNW
Wind: WNW 6 mph , 9 km/h
Temperature: 70°F , 21°C
Dew Point: 68°F , 20°C
Humidity: 94%
Barometer: 29.89 inHg , 1012.2 hPa
Clouds: Clear
Visibility: 10 miles , 16 km
2019/05/27 07:54 KACY 270754Z 30005KT 10SM CLR 21/20 A2989 RMK AO2 SLP122 T02060200